Terminal Aerodrome Forecast
Issued by NWS Austin/San Antonio, TX

Home | Current Version | Previous Version | Text Only | Print | Product List | Glossary On
Versions: 1 2 3 4 5 6 7 8 9 10 11 12 13 14 15 16 17 18 19 20 21
814
FTUS44 KEWX 281740
TAFSAT
TAF
KSAT 281740Z 2818/2924 02005KT P6SM VCSH BKN030
     FM290100 04004KT P6SM SCT030 BKN100
     FM290900 02003KT P6SM BKN015
     FM291600 04007KT P6SM BKN025
     FM291900 05008KT P6SM VCSH BKN030=

USA.gov is the U.S. government's official web portal to all federal, state and local government web resources and services.